sensor_id;sensor_type;location;lat;lon;timestamp;P1;durP1;ratioP1;P2;durP2;ratioP2
60722;SDS011;46574;52.818;6.516;2023-07-13T00:00:33;4.60;;;2.17;;
60722;SDS011;46574;52.818;6.516;2023-07-13T00:02:59;5.60;;;2.08;;
60722;SDS011;46574;52.818;6.516;2023-07-13T00:05:25;8.45;;;2.40;;
60722;SDS011;46574;52.818;6.516;2023-07-13T00:07:52;7.82;;;2.38;;
60722;SDS011;46574;52.818;6.516;2023-07-13T00:10:19;4.43;;;2.20;;
60722;SDS011;46574;52.818;6.516;2023-07-13T00:12:46;7.20;;;2.55;;
60722;SDS011;46574;52.818;6.516;2023-07-13T00:15:23;5.60;;;2.50;;
60722;SDS011;46574;52.818;6.516;2023-07-13T00:17:51;4.55;;;1.95;;
60722;SDS011;46574;52.818;6.516;2023-07-13T00:20:19;6.10;;;2.58;;
60722;SDS011;46574;52.818;6.516;2023-07-13T00:22:50;5.22;;;2.30;;
60722;SDS011;46574;52.818;6.516;2023-07-13T00:25:18;8.95;;;2.53;;
60722;SDS011;46574;52.818;6.516;2023-07-13T00:27:46;10.27;;;3.00;;
60722;SDS011;46574;52.818;6.516;2023-07-13T00:32:39;5.13;;;2.67;;
60722;SDS011;46574;52.818;6.516;2023-07-13T00:35:06;5.40;;;2.10;;
60722;SDS011;46574;52.818;6.516;2023-07-13T00:37:32;5.20;;;2.42;;
60722;SDS011;46574;52.818;6.516;2023-07-13T00:39:58;6.63;;;2.80;;
60722;SDS011;46574;52.818;6.516;2023-07-13T00:42:24;3.92;;;2.03;;
60722;SDS011;46574;52.818;6.516;2023-07-13T00:45:03;6.75;;;2.55;;
60722;SDS011;46574;52.818;6.516;2023-07-13T00:47:29;6.75;;;2.78;;
60722;SDS011;46574;52.818;6.516;2023-07-13T00:49:55;5.30;;;2.38;;
60722;SDS011;46574;52.818;6.516;2023-07-13T00:52:20;5.57;;;2.70;;
60722;SDS011;46574;52.818;6.516;2023-07-13T00:54:47;4.88;;;2.58;;
60722;SDS011;46574;52.818;6.516;2023-07-13T00:57:19;6.10;;;2.55;;
60722;SDS011;46574;52.818;6.516;2023-07-13T00:59:47;4.20;;;2.30;;
60722;SDS011;46574;52.818;6.516;2023-07-13T01:02:17;4.68;;;2.20;;
60722;SDS011;46574;52.818;6.516;2023-07-13T01:04:43;4.78;;;2.00;;
60722;SDS011;46574;52.818;6.516;2023-07-13T01:07:09;5.10;;;2.42;;
60722;SDS011;46574;52.818;6.516;2023-07-13T01:09:36;7.03;;;2.30;;
60722;SDS011;46574;52.818;6.516;2023-07-13T01:12:02;3.10;;;2.15;;
60722;SDS011;46574;52.818;6.516;2023-07-13T01:14:28;7.70;;;2.40;;
60722;SDS011;46574;52.818;6.516;2023-07-13T01:16:54;9.40;;;2.65;;
60722;SDS011;46574;52.818;6.516;2023-07-13T01:22:12;5.68;;;2.90;;
60722;SDS011;46574;52.818;6.516;2023-07-13T01:24:40;5.70;;;2.15;;
60722;SDS011;46574;52.818;6.516;2023-07-13T01:29:35;4.20;;;2.00;;
60722;SDS011;46574;52.818;6.516;2023-07-13T01:32:12;6.15;;;2.20;;
60722;SDS011;46574;52.818;6.516;2023-07-13T01:34:40;8.20;;;3.22;;
60722;SDS011;46574;52.818;6.516;2023-07-13T01:37:09;4.30;;;2.10;;
60722;SDS011;46574;52.818;6.516;2023-07-13T01:39:36;5.55;;;2.20;;
60722;SDS011;46574;52.818;6.516;2023-07-13T01:42:02;6.70;;;2.30;;
60722;SDS011;46574;52.818;6.516;2023-07-13T01:44:29;7.55;;;2.40;;
60722;SDS011;46574;52.818;6.516;2023-07-13T01:46:54;4.22;;;2.20;;
60722;SDS011;46574;52.818;6.516;2023-07-13T01:49:20;4.97;;;2.58;;
60722;SDS011;46574;52.818;6.516;2023-07-13T01:51:46;5.93;;;2.47;;
60722;SDS011;46574;52.818;6.516;2023-07-13T01:54:12;5.55;;;2.60;;
60722;SDS011;46574;52.818;6.516;2023-07-13T01:56:37;4.90;;;2.38;;
60722;SDS011;46574;52.818;6.516;2023-07-13T01:59:03;7.22;;;2.58;;
60722;SDS011;46574;52.818;6.516;2023-07-13T02:01:29;4.63;;;2.33;;
60722;SDS011;46574;52.818;6.516;2023-07-13T02:03:55;5.30;;;2.15;;
60722;SDS011;46574;52.818;6.516;2023-07-13T02:06:20;7.65;;;3.05;;
60722;SDS011;46574;52.818;6.516;2023-07-13T02:08:46;6.95;;;2.75;;
60722;SDS011;46574;52.818;6.516;2023-07-13T02:11:12;5.65;;;2.30;;
60722;SDS011;46574;52.818;6.516;2023-07-13T02:13:38;6.75;;;2.83;;
60722;SDS011;46574;52.818;6.516;2023-07-13T02:16:03;6.10;;;2.60;;
60722;SDS011;46574;52.818;6.516;2023-07-13T02:18:29;6.78;;;2.65;;
60722;SDS011;46574;52.818;6.516;2023-07-13T02:20:55;5.72;;;2.50;;
60722;SDS011;46574;52.818;6.516;2023-07-13T02:23:21;5.38;;;2.58;;
60722;SDS011;46574;52.818;6.516;2023-07-13T02:25:46;7.18;;;2.60;;
60722;SDS011;46574;52.818;6.516;2023-07-13T02:28:12;4.55;;;2.03;;
60722;SDS011;46574;52.818;6.516;2023-07-13T02:30:38;5.35;;;2.67;;
60722;SDS011;46574;52.818;6.516;2023-07-13T02:33:04;6.68;;;3.17;;
60722;SDS011;46574;52.818;6.516;2023-07-13T02:35:30;9.57;;;3.35;;
60722;SDS011;46574;52.818;6.516;2023-07-13T02:37:56;7.00;;;2.47;;
60722;SDS011;46574;52.818;6.516;2023-07-13T02:40:22;8.15;;;2.63;;
60722;SDS011;46574;52.818;6.516;2023-07-13T02:42:48;4.93;;;2.45;;
60722;SDS011;46574;52.818;6.516;2023-07-13T02:45:13;6.68;;;2.40;;
60722;SDS011;46574;52.818;6.516;2023-07-13T02:47:40;7.28;;;2.53;;
60722;SDS011;46574;52.818;6.516;2023-07-13T02:50:09;6.30;;;2.80;;
60722;SDS011;46574;52.818;6.516;2023-07-13T02:52:35;7.28;;;2.92;;
60722;SDS011;46574;52.818;6.516;2023-07-13T02:55:00;6.70;;;2.53;;
60722;SDS011;46574;52.818;6.516;2023-07-13T02:57:26;6.13;;;2.65;;
60722;SDS011;46574;52.818;6.516;2023-07-13T02:59:53;9.93;;;3.10;;
60722;SDS011;46574;52.818;6.516;2023-07-13T03:02:19;5.97;;;2.83;;
60722;SDS011;46574;52.818;6.516;2023-07-13T03:04:45;5.45;;;2.70;;
60722;SDS011;46574;52.818;6.516;2023-07-13T03:07:11;6.10;;;2.50;;
60722;SDS011;46574;52.818;6.516;2023-07-13T03:09:37;9.45;;;3.42;;
60722;SDS011;46574;52.818;6.516;2023-07-13T03:12:03;7.78;;;2.78;;
60722;SDS011;46574;52.818;6.516;2023-07-13T03:14:29;8.15;;;2.70;;
60722;SDS011;46574;52.818;6.516;2023-07-13T03:16:55;6.55;;;2.92;;
60722;SDS011;46574;52.818;6.516;2023-07-13T03:19:21;5.88;;;2.70;;
60722;SDS011;46574;52.818;6.516;2023-07-13T03:21:46;5.63;;;2.33;;
60722;SDS011;46574;52.818;6.516;2023-07-13T03:24:12;7.90;;;2.95;;
60722;SDS011;46574;52.818;6.516;2023-07-13T03:26:38;6.80;;;3.33;;
60722;SDS011;46574;52.818;6.516;2023-07-13T03:29:04;7.35;;;2.95;;
60722;SDS011;46574;52.818;6.516;2023-07-13T03:31:34;7.55;;;2.97;;
60722;SDS011;46574;52.818;6.516;2023-07-13T03:34:02;7.57;;;3.40;;
60722;SDS011;46574;52.818;6.516;2023-07-13T03:36:28;8.00;;;3.08;;
60722;SDS011;46574;52.818;6.516;2023-07-13T03:38:56;7.00;;;3.05;;
60722;SDS011;46574;52.818;6.516;2023-07-13T03:41:24;8.23;;;2.67;;
60722;SDS011;46574;52.818;6.516;2023-07-13T03:43:50;7.15;;;2.83;;
60722;SDS011;46574;52.818;6.516;2023-07-13T03:46:17;6.75;;;3.08;;
60722;SDS011;46574;52.818;6.516;2023-07-13T03:48:44;5.97;;;2.65;;
60722;SDS011;46574;52.818;6.516;2023-07-13T03:51:12;5.75;;;3.35;;
60722;SDS011;46574;52.818;6.516;2023-07-13T03:53:40;5.68;;;2.90;;
60722;SDS011;46574;52.818;6.516;2023-07-13T03:56:08;7.03;;;3.05;;
60722;SDS011;46574;52.818;6.516;2023-07-13T03:58:35;9.27;;;2.83;;
60722;SDS011;46574;52.818;6.516;2023-07-13T04:01:04;6.18;;;3.50;;
60722;SDS011;46574;52.818;6.516;2023-07-13T04:03:32;8.55;;;3.38;;
60722;SDS011;46574;52.818;6.516;2023-07-13T04:05:58;7.03;;;3.15;;
60722;SDS011;46574;52.818;6.516;2023-07-13T04:08:26;7.38;;;3.22;;
60722;SDS011;46574;52.818;6.516;2023-07-13T04:10:57;9.65;;;3.63;;
60722;SDS011;46574;52.818;6.516;2023-07-13T04:13:24;8.18;;;3.20;;
60722;SDS011;46574;52.818;6.516;2023-07-13T04:15:50;8.65;;;4.82;;
60722;SDS011;46574;52.818;6.516;2023-07-13T04:18:16;7.13;;;3.03;;
60722;SDS011;46574;52.818;6.516;2023-07-13T04:20:43;8.43;;;3.45;;
60722;SDS011;46574;52.818;6.516;2023-07-13T04:23:08;7.32;;;3.40;;
60722;SDS011;46574;52.818;6.516;2023-07-13T04:25:34;8.27;;;3.30;;
60722;SDS011;46574;52.818;6.516;2023-07-13T04:28:00;5.45;;;3.10;;
60722;SDS011;46574;52.818;6.516;2023-07-13T04:30:26;8.75;;;3.13;;
60722;SDS011;46574;52.818;6.516;2023-07-13T04:32:51;6.18;;;3.22;;
60722;SDS011;46574;52.818;6.516;2023-07-13T04:35:21;4.78;;;2.65;;
60722;SDS011;46574;52.818;6.516;2023-07-13T04:37:49;8.10;;;3.70;;
60722;SDS011;46574;52.818;6.516;2023-07-13T04:40:17;8.02;;;3.47;;
60722;SDS011;46574;52.818;6.516;2023-07-13T04:42:44;6.63;;;3.42;;
60722;SDS011;46574;52.818;6.516;2023-07-13T04:45:10;7.65;;;3.20;;
60722;SDS011;46574;52.818;6.516;2023-07-13T04:47:36;5.57;;;3.30;;
60722;SDS011;46574;52.818;6.516;2023-07-13T04:50:02;7.80;;;3.72;;
60722;SDS011;46574;52.818;6.516;2023-07-13T04:52:29;7.20;;;3.42;;
60722;SDS011;46574;52.818;6.516;2023-07-13T04:54:55;7.65;;;3.50;;
60722;SDS011;46574;52.818;6.516;2023-07-13T04:57:21;6.45;;;3.75;;
60722;SDS011;46574;52.818;6.516;2023-07-13T04:59:47;8.27;;;3.20;;
60722;SDS011;46574;52.818;6.516;2023-07-13T05:02:12;10.50;;;4.03;;
60722;SDS011;46574;52.818;6.516;2023-07-13T05:04:38;8.77;;;3.63;;
60722;SDS011;46574;52.818;6.516;2023-07-13T05:07:04;8.43;;;3.75;;
60722;SDS011;46574;52.818;6.516;2023-07-13T05:09:31;8.02;;;3.60;;
60722;SDS011;46574;52.818;6.516;2023-07-13T05:11:56;6.47;;;3.58;;
60722;SDS011;46574;52.818;6.516;2023-07-13T05:14:22;6.95;;;4.07;;
60722;SDS011;46574;52.818;6.516;2023-07-13T05:16:48;8.13;;;3.80;;
60722;SDS011;46574;52.818;6.516;2023-07-13T05:19:14;7.13;;;3.30;;
60722;SDS011;46574;52.818;6.516;2023-07-13T05:21:39;7.75;;;3.60;;
60722;SDS011;46574;52.818;6.516;2023-07-13T05:24:06;8.30;;;4.22;;
60722;SDS011;46574;52.818;6.516;2023-07-13T05:26:32;8.57;;;3.45;;
60722;SDS011;46574;52.818;6.516;2023-07-13T05:28:58;9.00;;;3.45;;
60722;SDS011;46574;52.818;6.516;2023-07-13T05:31:24;5.55;;;3.70;;
60722;SDS011;46574;52.818;6.516;2023-07-13T05:33:50;8.35;;;3.90;;
60722;SDS011;46574;52.818;6.516;2023-07-13T05:36:16;7.68;;;4.05;;
60722;SDS011;46574;52.818;6.516;2023-07-13T05:38:41;6.03;;;3.95;;
60722;SDS011;46574;52.818;6.516;2023-07-13T05:41:07;9.32;;;3.75;;
60722;SDS011;46574;52.818;6.516;2023-07-13T05:43:33;7.47;;;3.80;;
60722;SDS011;46574;52.818;6.516;2023-07-13T05:45:59;9.02;;;3.83;;
60722;SDS011;46574;52.818;6.516;2023-07-13T05:48:25;8.95;;;4.80;;
60722;SDS011;46574;52.818;6.516;2023-07-13T05:50:50;9.10;;;3.85;;
60722;SDS011;46574;52.818;6.516;2023-07-13T05:53:16;7.55;;;3.60;;
60722;SDS011;46574;52.818;6.516;2023-07-13T05:55:43;7.28;;;3.30;;
60722;SDS011;46574;52.818;6.516;2023-07-13T05:58:12;11.70;;;3.97;;
60722;SDS011;46574;52.818;6.516;2023-07-13T06:00:39;7.93;;;3.95;;
60722;SDS011;46574;52.818;6.516;2023-07-13T06:03:06;9.23;;;3.90;;
60722;SDS011;46574;52.818;6.516;2023-07-13T06:05:32;8.65;;;4.20;;
60722;SDS011;46574;52.818;6.516;2023-07-13T06:07:59;7.10;;;3.60;;
60722;SDS011;46574;52.818;6.516;2023-07-13T06:10:25;9.07;;;3.85;;
60722;SDS011;46574;52.818;6.516;2023-07-13T06:12:51;8.82;;;3.85;;
60722;SDS011;46574;52.818;6.516;2023-07-13T06:15:17;8.00;;;4.20;;
60722;SDS011;46574;52.818;6.516;2023-07-13T06:17:42;10.80;;;4.25;;
60722;SDS011;46574;52.818;6.516;2023-07-13T06:20:09;8.85;;;4.05;;
60722;SDS011;46574;52.818;6.516;2023-07-13T06:22:35;5.95;;;3.90;;
60722;SDS011;46574;52.818;6.516;2023-07-13T06:25:00;9.27;;;4.18;;
60722;SDS011;46574;52.818;6.516;2023-07-13T06:27:26;7.22;;;3.60;;
60722;SDS011;46574;52.818;6.516;2023-07-13T06:29:52;7.18;;;3.88;;
60722;SDS011;46574;52.818;6.516;2023-07-13T06:32:17;8.60;;;3.90;;
60722;SDS011;46574;52.818;6.516;2023-07-13T06:34:43;8.48;;;4.30;;
60722;SDS011;46574;52.818;6.516;2023-07-13T06:37:09;9.07;;;4.30;;
60722;SDS011;46574;52.818;6.516;2023-07-13T06:39:35;7.97;;;3.55;;
60722;SDS011;46574;52.818;6.516;2023-07-13T06:42:01;10.45;;;4.20;;
60722;SDS011;46574;52.818;6.516;2023-07-13T06:44:27;7.28;;;3.72;;
60722;SDS011;46574;52.818;6.516;2023-07-13T06:46:52;5.40;;;3.97;;
60722;SDS011;46574;52.818;6.516;2023-07-13T06:49:18;7.47;;;3.50;;
60722;SDS011;46574;52.818;6.516;2023-07-13T06:51:44;7.97;;;3.90;;
60722;SDS011;46574;52.818;6.516;2023-07-13T06:54:10;8.85;;;4.03;;
60722;SDS011;46574;52.818;6.516;2023-07-13T06:56:35;9.35;;;4.10;;
60722;SDS011;46574;52.818;6.516;2023-07-13T06:59:01;8.10;;;3.80;;
60722;SDS011;46574;52.818;6.516;2023-07-13T07:01:27;9.20;;;3.45;;
60722;SDS011;46574;52.818;6.516;2023-07-13T07:03:53;8.00;;;4.10;;
60722;SDS011;46574;52.818;6.516;2023-07-13T07:06:19;5.95;;;3.50;;
60722;SDS011;46574;52.818;6.516;2023-07-13T07:08:48;6.78;;;4.13;;
60722;SDS011;46574;52.818;6.516;2023-07-13T07:11:22;11.45;;;4.68;;
60722;SDS011;46574;52.818;6.516;2023-07-13T07:13:50;10.13;;;4.00;;
60722;SDS011;46574;52.818;6.516;2023-07-13T07:16:16;8.18;;;3.72;;
60722;SDS011;46574;52.818;6.516;2023-07-13T07:18:43;6.18;;;4.30;;
60722;SDS011;46574;52.818;6.516;2023-07-13T07:21:09;9.10;;;4.75;;
60722;SDS011;46574;52.818;6.516;2023-07-13T07:23:35;9.07;;;3.92;;
60722;SDS011;46574;52.818;6.516;2023-07-13T07:26:01;8.23;;;4.20;;
60722;SDS011;46574;52.818;6.516;2023-07-13T07:28:27;8.02;;;3.90;;
60722;SDS011;46574;52.818;6.516;2023-07-13T07:30:54;7.15;;;4.00;;
60722;SDS011;46574;52.818;6.516;2023-07-13T07:33:22;7.85;;;3.80;;
60722;SDS011;46574;52.818;6.516;2023-07-13T07:35:48;7.22;;;4.38;;
60722;SDS011;46574;52.818;6.516;2023-07-13T07:38:13;10.65;;;3.83;;
60722;SDS011;46574;52.818;6.516;2023-07-13T07:40:40;8.48;;;3.88;;
60722;SDS011;46574;52.818;6.516;2023-07-13T07:43:06;7.72;;;3.72;;
60722;SDS011;46574;52.818;6.516;2023-07-13T07:45:33;8.93;;;3.70;;
60722;SDS011;46574;52.818;6.516;2023-07-13T07:47:59;9.38;;;4.18;;
60722;SDS011;46574;52.818;6.516;2023-07-13T07:50:25;7.93;;;3.78;;
60722;SDS011;46574;52.818;6.516;2023-07-13T07:52:52;7.50;;;3.85;;
60722;SDS011;46574;52.818;6.516;2023-07-13T07:55:18;7.85;;;3.70;;
60722;SDS011;46574;52.818;6.516;2023-07-13T07:57:44;8.80;;;4.40;;
60722;SDS011;46574;52.818;6.516;2023-07-13T08:00:10;7.38;;;3.63;;
60722;SDS011;46574;52.818;6.516;2023-07-13T08:02:36;11.10;;;4.80;;
60722;SDS011;46574;52.818;6.516;2023-07-13T08:05:02;9.27;;;4.53;;
60722;SDS011;46574;52.818;6.516;2023-07-13T08:07:29;7.72;;;4.07;;
60722;SDS011;46574;52.818;6.516;2023-07-13T08:09:56;9.90;;;4.43;;
60722;SDS011;46574;52.818;6.516;2023-07-13T08:12:22;8.50;;;4.80;;
60722;SDS011;46574;52.818;6.516;2023-07-13T08:14:51;10.70;;;6.07;;
60722;SDS011;46574;52.818;6.516;2023-07-13T08:17:23;8.57;;;5.25;;
60722;SDS011;46574;52.818;6.516;2023-07-13T08:19:50;12.68;;;5.80;;
60722;SDS011;46574;52.818;6.516;2023-07-13T08:22:16;11.73;;;5.97;;
60722;SDS011;46574;52.818;6.516;2023-07-13T08:24:42;12.40;;;6.55;;
60722;SDS011;46574;52.818;6.516;2023-07-13T08:27:08;9.63;;;5.70;;
60722;SDS011;46574;52.818;6.516;2023-07-13T08:29:38;12.73;;;7.00;;
60722;SDS011;46574;52.818;6.516;2023-07-13T08:32:04;12.18;;;6.65;;
60722;SDS011;46574;52.818;6.516;2023-07-13T08:34:34;11.30;;;7.55;;
60722;SDS011;46574;52.818;6.516;2023-07-13T08:37:00;11.63;;;7.55;;
60722;SDS011;46574;52.818;6.516;2023-07-13T08:39:26;11.52;;;7.07;;
60722;SDS011;46574;52.818;6.516;2023-07-13T08:41:54;8.43;;;6.25;;
60722;SDS011;46574;52.818;6.516;2023-07-13T08:45:08;12.40;;;8.32;;
60722;SDS011;46574;52.818;6.516;2023-07-13T08:47:37;11.85;;;7.22;;
60722;SDS011;46574;52.818;6.516;2023-07-13T08:50:12;13.52;;;7.97;;
60722;SDS011;46574;52.818;6.516;2023-07-13T08:52:40;11.82;;;7.05;;
60722;SDS011;46574;52.818;6.516;2023-07-13T08:55:19;9.82;;;7.50;;
60722;SDS011;46574;52.818;6.516;2023-07-13T08:57:53;11.75;;;8.23;;
60722;SDS011;46574;52.818;6.516;2023-07-13T09:00:28;10.57;;;7.85;;
60722;SDS011;46574;52.818;6.516;2023-07-13T09:03:02;10.27;;;6.35;;
60722;SDS011;46574;52.818;6.516;2023-07-13T09:05:35;7.57;;;5.55;;
60722;SDS011;46574;52.818;6.516;2023-07-13T09:10:44;9.27;;;6.47;;
60722;SDS011;46574;52.818;6.516;2023-07-13T09:15:46;9.45;;;5.32;;
60722;SDS011;46574;52.818;6.516;2023-07-13T09:18:16;4.88;;;3.13;;
60722;SDS011;46574;52.818;6.516;2023-07-13T09:20:59;4.88;;;2.72;;
60722;SDS011;46574;52.818;6.516;2023-07-13T09:23:30;4.35;;;3.13;;
60722;SDS011;46574;52.818;6.516;2023-07-13T09:26:39;2.70;;;2.30;;
60722;SDS011;46574;52.818;6.516;2023-07-13T09:29:30;3.45;;;2.03;;
60722;SDS011;46574;52.818;6.516;2023-07-13T09:31:52;3.17;;;2.05;;
60722;SDS011;46574;52.818;6.516;2023-07-13T09:34:23;2.40;;;2.08;;
60722;SDS011;46574;52.818;6.516;2023-07-13T09:36:50;2.90;;;2.53;;
60722;SDS011;46574;52.818;6.516;2023-07-13T09:44:42;3.33;;;3.03;;
60722;SDS011;46574;52.818;6.516;2023-07-13T09:47:18;3.00;;;2.70;;
60722;SDS011;46574;52.818;6.516;2023-07-13T09:49:53;2.80;;;2.38;;
60722;SDS011;46574;52.818;6.516;2023-07-13T09:52:21;3.15;;;2.70;;
60722;SDS011;46574;52.818;6.516;2023-07-13T09:54:48;4.00;;;2.90;;
60722;SDS011;46574;52.818;6.516;2023-07-13T09:57:16;3.33;;;2.97;;
60722;SDS011;46574;52.818;6.516;2023-07-13T09:59:44;3.30;;;3.00;;
60722;SDS011;46574;52.818;6.516;2023-07-13T10:07:50;3.17;;;2.33;;
60722;SDS011;46574;52.818;6.516;2023-07-13T10:10:17;3.33;;;2.85;;
60722;SDS011;46574;52.818;6.516;2023-07-13T10:12:46;3.15;;;2.38;;
60722;SDS011;46574;52.818;6.516;2023-07-13T10:15:17;3.97;;;3.17;;
60722;SDS011;46574;52.818;6.516;2023-07-13T10:17:49;3.60;;;3.30;;
60722;SDS011;46574;52.818;6.516;2023-07-13T10:20:15;4.68;;;4.15;;
60722;SDS011;46574;52.818;6.516;2023-07-13T10:22:56;4.95;;;3.80;;
60722;SDS011;46574;52.818;6.516;2023-07-13T10:25:31;6.50;;;5.20;;
60722;SDS011;46574;52.818;6.516;2023-07-13T10:28:02;5.82;;;5.32;;
60722;SDS011;46574;52.818;6.516;2023-07-13T10:30:35;5.72;;;5.10;;
60722;SDS011;46574;52.818;6.516;2023-07-13T10:33:08;6.40;;;5.88;;
60722;SDS011;46574;52.818;6.516;2023-07-13T10:35:37;6.20;;;5.55;;
60722;SDS011;46574;52.818;6.516;2023-07-13T10:38:07;7.53;;;6.72;;
60722;SDS011;46574;52.818;6.516;2023-07-13T10:40:45;7.95;;;6.28;;
60722;SDS011;46574;52.818;6.516;2023-07-13T10:43:35;8.77;;;6.75;;
60722;SDS011;46574;52.818;6.516;2023-07-13T10:46:06;7.85;;;7.07;;
60722;SDS011;46574;52.818;6.516;2023-07-13T10:48:35;8.35;;;7.00;;
60722;SDS011;46574;52.818;6.516;2023-07-13T10:51:02;7.60;;;6.85;;
60722;SDS011;46574;52.818;6.516;2023-07-13T10:53:33;8.48;;;6.43;;
60722;SDS011;46574;52.818;6.516;2023-07-13T11:01:09;7.13;;;6.47;;
60722;SDS011;46574;52.818;6.516;2023-07-13T11:06:43;7.00;;;5.88;;
60722;SDS011;46574;52.818;6.516;2023-07-13T11:09:18;6.80;;;4.97;;
60722;SDS011;46574;52.818;6.516;2023-07-13T11:11:44;5.65;;;4.25;;
60722;SDS011;46574;52.818;6.516;2023-07-13T11:16:54;6.47;;;4.88;;
60722;SDS011;46574;52.818;6.516;2023-07-13T11:24:51;8.88;;;5.55;;
60722;SDS011;46574;52.818;6.516;2023-07-13T11:28:03;6.80;;;4.10;;
60722;SDS011;46574;52.818;6.516;2023-07-13T11:35:59;4.32;;;4.03;;
60722;SDS011;46574;52.818;6.516;2023-07-13T11:40:58;6.20;;;5.60;;
60722;SDS011;46574;52.818;6.516;2023-07-13T11:43:28;6.63;;;5.88;;
60722;SDS011;46574;52.818;6.516;2023-07-13T11:45:54;5.28;;;4.78;;
60722;SDS011;46574;52.818;6.516;2023-07-13T11:48:25;5.22;;;4.60;;
60722;SDS011;46574;52.818;6.516;2023-07-13T11:50:54;6.60;;;6.10;;
60722;SDS011;46574;52.818;6.516;2023-07-13T11:53:24;8.23;;;7.00;;
60722;SDS011;46574;52.818;6.516;2023-07-13T11:55:52;6.80;;;6.18;;
60722;SDS011;46574;52.818;6.516;2023-07-13T11:58:19;7.55;;;6.88;;
60722;SDS011;46574;52.818;6.516;2023-07-13T12:00:49;6.72;;;5.70;;
60722;SDS011;46574;52.818;6.516;2023-07-13T12:03:18;5.38;;;4.97;;
60722;SDS011;46574;52.818;6.516;2023-07-13T12:06:02;7.32;;;6.53;;
60722;SDS011;46574;52.818;6.516;2023-07-13T12:08:39;8.32;;;7.53;;
60722;SDS011;46574;52.818;6.516;2023-07-13T12:11:06;6.47;;;5.15;;
60722;SDS011;46574;52.818;6.516;2023-07-13T12:13:40;7.20;;;6.05;;
60722;SDS011;46574;52.818;6.516;2023-07-13T12:16:48;7.82;;;6.70;;
60722;SDS011;46574;52.818;6.516;2023-07-13T12:18:58;8.80;;;6.57;;
60722;SDS011;46574;52.818;6.516;2023-07-13T12:21:32;6.90;;;6.17;;
60722;SDS011;46574;52.818;6.516;2023-07-13T12:24:02;5.97;;;4.70;;
60722;SDS011;46574;52.818;6.516;2023-07-13T12:26:29;8.80;;;5.40;;
60722;SDS011;46574;52.818;6.516;2023-07-13T12:28:56;5.05;;;3.80;;
60722;SDS011;46574;52.818;6.516;2023-07-13T12:34:06;4.13;;;2.63;;
60722;SDS011;46574;52.818;6.516;2023-07-13T12:36:35;3.72;;;2.80;;
60722;SDS011;46574;52.818;6.516;2023-07-13T12:39:04;5.95;;;2.83;;
60722;SDS011;46574;52.818;6.516;2023-07-13T12:41:38;5.38;;;2.70;;
60722;SDS011;46574;52.818;6.516;2023-07-13T12:44:07;3.60;;;2.60;;
60722;SDS011;46574;52.818;6.516;2023-07-13T12:46:38;4.05;;;2.25;;
60722;SDS011;46574;52.818;6.516;2023-07-13T12:49:06;3.45;;;1.77;;
60722;SDS011;46574;52.818;6.516;2023-07-13T12:51:32;4.30;;;2.17;;
60722;SDS011;46574;52.818;6.516;2023-07-13T12:54:17;5.05;;;2.40;;
60722;SDS011;46574;52.818;6.516;2023-07-13T12:56:44;5.20;;;2.13;;
60722;SDS011;46574;52.818;6.516;2023-07-13T12:59:16;3.83;;;1.83;;
60722;SDS011;46574;52.818;6.516;2023-07-13T13:01:44;5.07;;;1.55;;
60722;SDS011;46574;52.818;6.516;2023-07-13T13:04:11;4.15;;;1.60;;
60722;SDS011;46574;52.818;6.516;2023-07-13T13:06:38;3.53;;;1.70;;
60722;SDS011;46574;52.818;6.516;2023-07-13T13:09:11;3.45;;;1.40;;
60722;SDS011;46574;52.818;6.516;2023-07-13T13:11:38;2.17;;;1.45;;
60722;SDS011;46574;52.818;6.516;2023-07-13T13:14:05;2.00;;;1.60;;
60722;SDS011;46574;52.818;6.516;2023-07-13T13:16:32;3.15;;;1.50;;
60722;SDS011;46574;52.818;6.516;2023-07-13T13:19:13;3.38;;;2.00;;
60722;SDS011;46574;52.818;6.516;2023-07-13T13:21:42;3.47;;;1.67;;
60722;SDS011;46574;52.818;6.516;2023-07-13T13:24:13;1.88;;;1.27;;
60722;SDS011;46574;52.818;6.516;2023-07-13T13:26:42;3.20;;;1.40;;
60722;SDS011;46574;52.818;6.516;2023-07-13T13:29:13;2.55;;;1.40;;
60722;SDS011;46574;52.818;6.516;2023-07-13T13:31:44;1.75;;;1.20;;
60722;SDS011;46574;52.818;6.516;2023-07-13T13:34:14;3.90;;;1.33;;
60722;SDS011;46574;52.818;6.516;2023-07-13T13:36:41;4.43;;;1.40;;
60722;SDS011;46574;52.818;6.516;2023-07-13T13:39:19;2.35;;;1.20;;
60722;SDS011;46574;52.818;6.516;2023-07-13T13:41:48;3.15;;;1.30;;
60722;SDS011;46574;52.818;6.516;2023-07-13T13:44:15;3.17;;;1.42;;
60722;SDS011;46574;52.818;6.516;2023-07-13T13:46:42;3.20;;;1.23;;
60722;SDS011;46574;52.818;6.516;2023-07-13T13:49:17;3.88;;;1.40;;
60722;SDS011;46574;52.818;6.516;2023-07-13T13:51:46;2.53;;;0.90;;
60722;SDS011;46574;52.818;6.516;2023-07-13T13:54:15;3.22;;;1.45;;
60722;SDS011;46574;52.818;6.516;2023-07-13T13:56:46;2.80;;;1.58;;
60722;SDS011;46574;52.818;6.516;2023-07-13T13:59:13;1.95;;;1.27;;
60722;SDS011;46574;52.818;6.516;2023-07-13T14:01:39;1.90;;;1.20;;
60722;SDS011;46574;52.818;6.516;2023-07-13T14:04:08;3.75;;;1.20;;
60722;SDS011;46574;52.818;6.516;2023-07-13T14:06:39;3.05;;;1.25;;
60722;SDS011;46574;52.818;6.516;2023-07-13T14:09:08;3.65;;;1.30;;
60722;SDS011;46574;52.818;6.516;2023-07-13T14:11:38;2.88;;;1.42;;
60722;SDS011;46574;52.818;6.516;2023-07-13T14:14:17;2.47;;;1.20;;
60722;SDS011;46574;52.818;6.516;2023-07-13T14:16:47;2.35;;;1.23;;
60722;SDS011;46574;52.818;6.516;2023-07-13T14:19:18;1.83;;;0.93;;
60722;SDS011;46574;52.818;6.516;2023-07-13T14:21:45;2.13;;;1.00;;
60722;SDS011;46574;52.818;6.516;2023-07-13T14:24:12;2.20;;;1.13;;
60722;SDS011;46574;52.818;6.516;2023-07-13T14:26:38;1.63;;;1.10;;
60722;SDS011;46574;52.818;6.516;2023-07-13T14:29:16;1.40;;;1.13;;
60722;SDS011;46574;52.818;6.516;2023-07-13T14:31:44;1.85;;;1.10;;
60722;SDS011;46574;52.818;6.516;2023-07-13T14:34:10;1.23;;;0.90;;
60722;SDS011;46574;52.818;6.516;2023-07-13T14:36:47;2.80;;;1.20;;
60722;SDS011;46574;52.818;6.516;2023-07-13T14:39:16;2.90;;;1.10;;
60722;SDS011;46574;52.818;6.516;2023-07-13T14:41:43;1.42;;;1.13;;
60722;SDS011;46574;52.818;6.516;2023-07-13T14:44:13;1.83;;;1.00;;
60722;SDS011;46574;52.818;6.516;2023-07-13T14:46:40;1.23;;;1.13;;
60722;SDS011;46574;52.818;6.516;2023-07-13T14:49:27;2.03;;;1.35;;
60722;SDS011;46574;52.818;6.516;2023-07-13T14:54:48;2.88;;;1.70;;
60722;SDS011;46574;52.818;6.516;2023-07-13T14:57:15;2.20;;;0.95;;
60722;SDS011;46574;52.818;6.516;2023-07-13T14:59:43;3.72;;;1.42;;
60722;SDS011;46574;52.818;6.516;2023-07-13T15:04:57;3.08;;;1.50;;
60722;SDS011;46574;52.818;6.516;2023-07-13T15:07:23;2.53;;;1.40;;
60722;SDS011;46574;52.818;6.516;2023-07-13T15:09:49;3.20;;;1.30;;
60722;SDS011;46574;52.818;6.516;2023-07-13T15:12:18;3.42;;;1.48;;
60722;SDS011;46574;52.818;6.516;2023-07-13T15:14:45;3.08;;;1.20;;
60722;SDS011;46574;52.818;6.516;2023-07-13T15:17:53;2.03;;;1.20;;
60722;SDS011;46574;52.818;6.516;2023-07-13T15:22:51;2.25;;;1.40;;
60722;SDS011;46574;52.818;6.516;2023-07-13T15:25:17;2.15;;;1.30;;
60722;SDS011;46574;52.818;6.516;2023-07-13T15:27:45;2.22;;;1.30;;
60722;SDS011;46574;52.818;6.516;2023-07-13T15:30:11;3.58;;;1.33;;
60722;SDS011;46574;52.818;6.516;2023-07-13T15:32:38;1.77;;;1.30;;
60722;SDS011;46574;52.818;6.516;2023-07-13T15:35:04;1.38;;;1.13;;
60722;SDS011;46574;52.818;6.516;2023-07-13T15:37:39;2.30;;;1.10;;
60722;SDS011;46574;52.818;6.516;2023-07-13T15:40:05;2.08;;;1.42;;
60722;SDS011;46574;52.818;6.516;2023-07-13T15:42:32;1.70;;;1.30;;
60722;SDS011;46574;52.818;6.516;2023-07-13T15:44:58;2.53;;;1.40;;
60722;SDS011;46574;52.818;6.516;2023-07-13T15:47:24;2.58;;;1.25;;
60722;SDS011;46574;52.818;6.516;2023-07-13T15:49:49;2.88;;;1.45;;
60722;SDS011;46574;52.818;6.516;2023-07-13T15:52:19;2.65;;;1.40;;
60722;SDS011;46574;52.818;6.516;2023-07-13T15:54:48;2.85;;;1.88;;